A80 TRACON Summary / KATL TAF
ATL TRACON Summary:
Expect VFR conditions with FEW/SCT035-050 clouds developing between 15-18z. Chances for isolated thunderstorms will increase by 18-20z with afternoon heating. Cells will move towards the east to northeast at 5-15kts. Surface winds will be from the west to southwest at 5-10kts, but variable and gusty near convection. No significant flight hazards are expected in the TRACON airspace.

Updated:9/2/2014 6:22 AM
ATL Terminal Aerodrome Forecast:

FTUS80 KATL 021357 AAA
KATL 021356Z 0214/0318 28005KT P6SM FEW035 SCT150
     FM021700 27006KT P6SM SCT050 SCT150
      TEMPO 0218/0222 VRB15G30KT 2SM TSRA BKN045CB
     FM030100 VRB03KT P6SM BKN120
     FM031400 31004KT P6SM SCT040 BKN120
ATL TRACON Area Remark:
ISOLATED TS POSSIBLE ALL QUADS AFTER 18z, but MOSTLY W/NW/N.
Convective Gate Forecast / Collaborative Convective Forecast Product / Vertical Wind Profile
Convective Gate Forecast
SIGMETS/ Southeast Radar & Satellite Loops (click on image to enlarge)

Southeast Radar Loop

 



USA.gov is the U.S. government's official web portal to all federal, state and local government web resources and services.